createdAt,value
2022-08-05T00:00:24.080Z,29.00
2022-08-05T00:02:55.620Z,29.00
2022-08-05T00:06:02.663Z,29.00
2022-08-05T00:08:35.216Z,29.00
2022-08-05T00:11:01.360Z,29.00
2022-08-05T00:13:39.221Z,28.90
2022-08-05T00:16:10.833Z,28.90
2022-08-05T00:18:44.362Z,28.90
2022-08-05T00:21:14.235Z,28.90
2022-08-05T00:23:45.881Z,28.80
2022-08-05T00:26:22.285Z,28.70
2022-08-05T00:28:51.073Z,28.70
2022-08-05T00:31:54.474Z,28.70
2022-08-05T00:34:55.262Z,28.70
2022-08-05T00:37:12.356Z,28.70
2022-08-05T00:39:57.205Z,28.70
2022-08-05T00:42:32.793Z,28.60
2022-08-05T00:45:01.495Z,28.60
2022-08-05T00:47:53.403Z,28.60
2022-08-05T00:50:20.918Z,28.50
2022-08-05T00:52:49.337Z,28.50
2022-08-05T00:55:17.492Z,28.50
2022-08-05T00:57:58.621Z,28.50
2022-08-05T01:00:28.828Z,28.40
2022-08-05T01:02:57.600Z,28.40
2022-08-05T01:05:29.707Z,28.40
2022-08-05T01:08:41.547Z,28.40
2022-08-05T01:10:51.732Z,28.30
2022-08-05T01:13:27.566Z,28.30
2022-08-05T01:16:21.073Z,28.20
2022-08-05T01:18:59.301Z,28.20
2022-08-05T01:21:58.268Z,28.20
2022-08-05T01:25:00.862Z,28.20
2022-08-05T01:27:55.594Z,28.20
2022-08-05T01:30:34.881Z,28.30
2022-08-05T01:33:06.087Z,28.30
2022-08-05T01:35:51.722Z,28.30
2022-08-05T01:38:27.424Z,28.30
2022-08-05T01:40:59.618Z,28.30
2022-08-05T01:43:29.868Z,28.30
2022-08-05T01:46:07.526Z,28.30
2022-08-05T01:48:49.553Z,28.40
2022-08-05T01:51:19.817Z,28.40
2022-08-05T01:53:57.484Z,28.40
2022-08-05T01:58:12.973Z,28.40
2022-08-05T01:59:22.777Z,28.40
2022-08-05T02:01:55.638Z,28.40
2022-08-05T02:04:30.069Z,28.40
2022-08-05T02:06:59.959Z,28.40
2022-08-05T02:09:31.718Z,28.40
2022-08-05T02:12:09.972Z,28.40
2022-08-05T02:14:47.108Z,28.50
2022-08-05T02:18:28.019Z,28.50
2022-08-05T02:20:20.755Z,28.50
2022-08-05T02:22:57.037Z,28.40
2022-08-05T02:25:33.300Z,28.50
2022-08-05T02:28:08.989Z,28.50
2022-08-05T02:30:51.702Z,28.50
2022-08-05T02:33:24.474Z,28.40
2022-08-05T02:36:09.475Z,28.40
2022-08-05T02:38:38.531Z,28.40
2022-08-05T02:41:17.269Z,28.40
2022-08-05T02:44:06.392Z,28.30
2022-08-05T02:46:53.835Z,28.30
2022-08-05T02:49:36.569Z,28.30
2022-08-05T02:52:08.974Z,28.30
2022-08-05T02:54:41.200Z,28.30
2022-08-05T02:58:11.605Z,28.30
2022-08-05T03:00:01.259Z,28.30
2022-08-05T03:02:35.487Z,28.20
2022-08-05T03:05:04.774Z,28.20
2022-08-05T03:07:59.248Z,28.20
2022-08-05T03:10:25.186Z,28.20
2022-08-05T03:12:54.122Z,28.20
2022-08-05T03:15:23.431Z,28.20
2022-08-05T03:17:55.883Z,28.20
2022-08-05T03:20:24.810Z,28.20
2022-08-05T03:22:57.178Z,28.20
2022-08-05T03:25:34.137Z,28.20
2022-08-05T03:28:18.839Z,28.20
2022-08-05T03:30:49.367Z,28.20
2022-08-05T03:33:19.040Z,28.10
2022-08-05T03:35:48.541Z,28.10
2022-08-05T03:38:32.748Z,28.10
2022-08-05T03:41:08.130Z,28.10
2022-08-05T03:44:09.979Z,28.00
2022-08-05T03:46:26.714Z,28.00
2022-08-05T03:48:59.565Z,27.90
2022-08-05T03:52:50.546Z,27.90
2022-08-05T03:55:53.543Z,27.90
2022-08-05T03:57:29.243Z,27.90
2022-08-05T04:00:15.506Z,27.90
2022-08-05T04:02:58.204Z,27.90
2022-08-05T04:05:33.430Z,27.90
2022-08-05T04:08:05.683Z,27.90
2022-08-05T04:10:44.888Z,27.90
2022-08-05T04:13:13.206Z,27.80
2022-08-05T04:16:03.374Z,27.60
2022-08-05T04:18:30.187Z,27.60
2022-08-05T04:20:59.648Z,27.60
2022-08-05T04:24:00.205Z,27.60
2022-08-05T04:26:18.515Z,27.60
2022-08-05T04:28:51.168Z,27.60
2022-08-05T04:31:20.436Z,27.60
2022-08-05T04:34:17.623Z,27.60
2022-08-05T04:36:46.471Z,27.60
2022-08-05T04:39:18.645Z,27.50
2022-08-05T04:41:48.066Z,27.50
2022-08-05T04:44:21.389Z,27.50
2022-08-05T04:46:58.577Z,27.50
2022-08-05T04:49:38.741Z,27.40
2022-08-05T04:52:16.500Z,27.40
2022-08-05T04:54:44.691Z,27.40
2022-08-05T04:57:12.740Z,27.40
2022-08-05T04:59:41.042Z,27.40
2022-08-05T05:02:36.167Z,27.40
2022-08-05T05:05:02.202Z,27.40
2022-08-05T05:07:35.594Z,27.40
2022-08-05T05:10:06.523Z,27.40
2022-08-05T05:12:36.679Z,27.30
2022-08-05T05:15:06.108Z,27.40
2022-08-05T05:17:56.694Z,27.40
2022-08-05T05:20:28.393Z,27.40
2022-08-05T05:22:58.431Z,27.50
2022-08-05T05:25:40.550Z,27.50
2022-08-05T05:28:09.276Z,27.50
2022-08-05T05:30:37.632Z,27.50
2022-08-05T05:33:14.097Z,27.50
2022-08-05T05:35:45.690Z,27.60
2022-08-05T05:38:22.925Z,27.60
2022-08-05T05:40:57.085Z,27.60
2022-08-05T05:43:57.193Z,27.70
2022-08-05T05:46:17.788Z,27.70
2022-08-05T05:48:48.906Z,27.70
2022-08-05T05:51:24.724Z,27.70
2022-08-05T05:53:59.271Z,27.80
2022-08-05T05:56:33.210Z,27.80
2022-08-05T05:59:03.880Z,27.80
2022-08-05T06:01:37.772Z,27.90
2022-08-05T06:04:08.271Z,27.90
2022-08-05T06:06:41.725Z,27.90
2022-08-05T06:09:17.407Z,27.90
2022-08-05T06:11:59.236Z,28.00
2022-08-05T06:14:30.362Z,28.10
2022-08-05T06:16:58.586Z,28.10
2022-08-05T06:19:34.608Z,28.10
2022-08-05T06:22:03.860Z,28.20
2022-08-05T06:24:33.335Z,28.20
2022-08-05T06:27:04.065Z,28.20
2022-08-05T06:29:51.968Z,28.20
2022-08-05T06:32:25.565Z,28.20
2022-08-05T06:34:56.588Z,28.20
2022-08-05T06:37:55.969Z,28.30
2022-08-05T06:40:20.560Z,28.30
2022-08-05T06:42:51.735Z,28.40
2022-08-05T06:46:02.822Z,28.50
2022-08-05T06:48:36.386Z,28.50
2022-08-05T06:50:58.627Z,28.50
2022-08-05T06:53:29.309Z,28.60
2022-08-05T06:56:03.401Z,28.70
2022-08-05T06:58:36.259Z,28.80
2022-08-05T07:01:07.073Z,28.90
2022-08-05T07:03:35.912Z,28.90
2022-08-05T07:06:05.674Z,29.00
2022-08-05T07:08:42.742Z,29.00
2022-08-05T07:11:15.124Z,29.10
2022-08-05T07:14:01.805Z,29.20
2022-08-05T07:18:02.423Z,29.30
2022-08-05T07:22:29.151Z,29.30
2022-08-05T07:25:21.826Z,29.40
2022-08-05T07:27:57.993Z,29.40
2022-08-05T07:30:34.055Z,29.40
2022-08-05T07:33:05.378Z,29.40
2022-08-05T07:36:02.761Z,29.40
2022-08-05T07:38:34.170Z,29.50
2022-08-05T07:42:06.799Z,29.50
2022-08-05T07:43:57.006Z,29.50
2022-08-05T07:46:26.833Z,29.50
2022-08-05T07:49:02.810Z,29.50
2022-08-05T07:51:40.634Z,29.50
2022-08-05T07:54:11.495Z,29.50
2022-08-05T07:57:13.772Z,29.60
2022-08-05T07:59:39.076Z,29.60
2022-08-05T08:02:15.860Z,29.60
2022-08-05T08:04:46.526Z,29.60
2022-08-05T08:07:15.392Z,29.60
2022-08-05T08:09:43.967Z,29.60
2022-08-05T08:12:35.181Z,29.70
2022-08-05T08:15:04.392Z,29.70
2022-08-05T08:17:33.186Z,29.70
2022-08-05T08:20:43.194Z,29.70
2022-08-05T08:22:55.780Z,29.80
2022-08-05T08:25:26.823Z,29.80
2022-08-05T08:28:18.793Z,29.80
2022-08-05T08:31:02.634Z,29.80
2022-08-05T08:33:36.113Z,29.80
2022-08-05T08:38:56.891Z,29.90
2022-08-05T08:41:52.711Z,29.90
2022-08-05T08:45:16.774Z,30.00
2022-08-05T08:47:47.048Z,30.00
2022-08-05T08:50:23.314Z,30.00
2022-08-05T08:52:51.499Z,30.00
2022-08-05T08:56:01.770Z,30.00
2022-08-05T08:58:12.860Z,30.00
2022-08-05T09:00:42.744Z,30.00
2022-08-05T09:03:15.907Z,30.10
2022-08-05T09:06:08.518Z,30.10
2022-08-05T09:08:37.269Z,30.10
2022-08-05T09:11:08.829Z,30.10
2022-08-05T09:14:10.112Z,30.10
2022-08-05T09:16:31.851Z,30.10
2022-08-05T09:19:01.413Z,30.20
2022-08-05T09:22:22.109Z,30.20
2022-08-05T09:24:24.307Z,30.20
2022-08-05T09:26:56.178Z,30.20
2022-08-05T09:29:44.717Z,30.20
2022-08-05T09:32:45.767Z,30.30
2022-08-05T09:35:26.808Z,30.30
2022-08-05T09:38:16.403Z,30.40
2022-08-05T09:40:52.205Z,30.40
2022-08-05T09:43:40.710Z,30.40
2022-08-05T09:46:27.440Z,30.40
2022-08-05T09:49:06.743Z,30.50
2022-08-05T09:51:42.043Z,30.50
2022-08-05T09:54:11.508Z,30.60
2022-08-05T09:56:40.512Z,30.60
2022-08-05T09:59:19.858Z,30.60
2022-08-05T10:01:48.383Z,30.70
2022-08-05T10:04:38.272Z,30.70
2022-08-05T10:07:31.887Z,30.80
2022-08-05T10:10:04.248Z,30.80
2022-08-05T10:12:49.813Z,30.70
2022-08-05T10:15:27.280Z,30.70
2022-08-05T10:18:14.235Z,30.80
2022-08-05T10:20:48.651Z,30.80
2022-08-05T10:23:34.458Z,30.90
2022-08-05T10:26:14.157Z,30.90
2022-08-05T10:28:43.779Z,31.00
2022-08-05T10:32:50.555Z,31.00
2022-08-05T10:34:03.452Z,31.10
2022-08-05T10:36:32.310Z,31.20
2022-08-05T10:39:10.371Z,31.20
2022-08-05T10:41:48.857Z,31.10
2022-08-05T10:44:21.312Z,31.20
2022-08-05T10:46:54.424Z,31.20
2022-08-05T10:49:27.600Z,31.20
2022-08-05T10:52:05.306Z,31.20
2022-08-05T10:55:03.108Z,31.20
2022-08-05T10:57:34.188Z,31.30
2022-08-05T11:00:18.570Z,31.30
2022-08-05T11:03:24.529Z,31.40
2022-08-05T11:06:17.954Z,31.40
2022-08-05T11:09:39.475Z,31.40
2022-08-05T11:12:54.428Z,31.50
2022-08-05T11:16:00.499Z,31.40
2022-08-05T11:18:29.697Z,31.40
2022-08-05T11:20:59.093Z,31.40
2022-08-05T11:24:03.010Z,31.40
2022-08-05T11:26:33.395Z,31.40
2022-08-05T11:29:11.778Z,31.40
2022-08-05T11:31:57.972Z,31.40
2022-08-05T11:34:51.011Z,31.40
2022-08-05T11:38:37.105Z,31.40
2022-08-05T11:41:14.141Z,31.50
2022-08-05T11:44:04.645Z,31.50
2022-08-05T11:46:58.620Z,31.40
2022-08-05T11:49:27.768Z,31.50
2022-08-05T11:51:57.443Z,31.50
2022-08-05T11:54:33.284Z,31.50
2022-08-05T11:57:08.430Z,31.50
2022-08-05T11:59:53.344Z,31.50
2022-08-05T12:02:31.328Z,31.50
2022-08-05T12:05:07.189Z,31.50
2022-08-05T12:08:04.370Z,31.50
2022-08-05T12:10:45.472Z,31.50
2022-08-05T12:13:27.839Z,31.50
2022-08-05T12:16:14.797Z,31.60
2022-08-05T12:18:52.427Z,31.60
2022-08-05T12:21:24.150Z,31.60
2022-08-05T12:24:04.562Z,31.60
2022-08-05T12:26:34.261Z,31.60
2022-08-05T12:29:03.277Z,31.60
2022-08-05T12:31:46.003Z,31.70
2022-08-05T12:34:21.723Z,31.70
2022-08-05T12:36:53.835Z,31.80
2022-08-05T12:39:23.720Z,31.80
2022-08-05T12:41:59.684Z,31.80
2022-08-05T12:44:33.503Z,31.80
2022-08-05T12:47:03.543Z,31.80
2022-08-05T12:50:04.277Z,31.80
2022-08-05T12:52:38.740Z,31.80
2022-08-05T12:55:23.553Z,31.90
2022-08-05T12:58:38.672Z,31.90
2022-08-05T13:02:00.487Z,31.90
2022-08-05T13:03:41.538Z,31.90
2022-08-05T13:06:16.458Z,31.80
2022-08-05T13:08:52.212Z,31.80
2022-08-05T13:11:47.058Z,31.80
2022-08-05T13:14:19.823Z,31.80
2022-08-05T13:16:54.806Z,31.90
2022-08-05T13:19:26.347Z,32.10
2022-08-05T13:21:56.897Z,32.10
2022-08-05T13:24:27.760Z,32.10
2022-08-05T13:27:23.106Z,32.10
2022-08-05T13:30:35.759Z,32.20
2022-08-05T13:32:50.744Z,32.10
2022-08-05T13:35:22.434Z,32.10
2022-08-05T13:38:13.371Z,32.20
2022-08-05T13:40:51.983Z,32.10
2022-08-05T13:43:22.002Z,32.00
2022-08-05T13:45:50.672Z,32.00
2022-08-05T13:48:58.834Z,32.00
2022-08-05T13:51:08.514Z,32.10
2022-08-05T13:53:47.410Z,32.00
2022-08-05T13:56:18.402Z,32.10
2022-08-05T13:58:53.057Z,32.10
2022-08-05T14:01:27.428Z,32.10
2022-08-05T14:04:27.838Z,32.10
2022-08-05T14:06:58.654Z,32.10
2022-08-05T14:09:42.959Z,31.70
2022-08-05T14:12:18.124Z,32.20
2022-08-05T14:15:01.014Z,32.20
2022-08-05T14:17:34.399Z,32.20
2022-08-05T14:20:04.669Z,32.10
2022-08-05T14:22:36.346Z,32.10
2022-08-05T14:25:22.005Z,32.10
2022-08-05T14:27:51.005Z,32.10
2022-08-05T14:30:21.451Z,32.00
2022-08-05T14:32:49.993Z,32.00
2022-08-05T14:35:20.672Z,31.90
2022-08-05T14:37:55.040Z,31.90
2022-08-05T14:40:25.080Z,31.90
2022-08-05T14:42:53.573Z,31.90
2022-08-05T14:45:24.154Z,31.90
2022-08-05T14:48:04.033Z,31.90
2022-08-05T14:50:39.672Z,31.80
2022-08-05T14:53:08.111Z,31.80
2022-08-05T14:55:39.334Z,31.80
2022-08-05T14:58:11.575Z,31.80
2022-08-05T15:00:59.830Z,31.80
2022-08-05T15:03:33.311Z,31.80
2022-08-05T15:06:07.960Z,31.70
2022-08-05T15:09:01.226Z,31.70
2022-08-05T15:11:51.731Z,31.50
2022-08-05T15:14:20.245Z,31.30
2022-08-05T15:17:03.895Z,31.10
2022-08-05T15:19:32.501Z,30.90
2022-08-05T15:22:01.784Z,30.80
2022-08-05T15:24:30.307Z,30.70
2022-08-05T15:27:00.433Z,30.60
2022-08-05T15:29:30.305Z,30.50
2022-08-05T15:32:02.228Z,30.50
2022-08-05T15:34:33.921Z,30.40
2022-08-05T15:37:06.815Z,30.40
2022-08-05T15:41:01.807Z,30.40
2022-08-05T15:42:54.770Z,30.40
2022-08-05T15:45:36.325Z,30.40
2022-08-05T15:48:07.290Z,30.30
2022-08-05T15:50:35.970Z,30.30
2022-08-05T15:53:06.406Z,30.30
2022-08-05T15:56:02.744Z,30.40
2022-08-05T15:58:28.193Z,30.50
2022-08-05T16:01:11.850Z,30.40
2022-08-05T16:03:45.621Z,30.40
2022-08-05T16:06:19.608Z,30.40
2022-08-05T16:08:50.939Z,30.50
2022-08-05T16:11:42.321Z,30.50
2022-08-05T16:14:17.509Z,30.50
2022-08-05T16:16:47.141Z,30.50
2022-08-05T16:19:25.598Z,30.50
2022-08-05T16:22:04.504Z,30.50
2022-08-05T16:24:41.292Z,30.40
2022-08-05T16:27:46.764Z,30.50
2022-08-05T16:30:23.230Z,30.40
2022-08-05T16:32:54.164Z,30.30
2022-08-05T16:35:27.597Z,30.20
2022-08-05T16:38:02.846Z,30.20
2022-08-05T16:40:47.888Z,30.20
2022-08-05T16:43:23.492Z,30.20
2022-08-05T16:46:04.130Z,30.20
2022-08-05T16:48:38.766Z,30.10
2022-08-05T16:51:09.782Z,30.20
2022-08-05T16:54:05.614Z,30.10
2022-08-05T16:56:29.199Z,30.10
2022-08-05T16:58:57.998Z,30.00
2022-08-05T17:01:27.627Z,30.00
2022-08-05T17:04:15.687Z,30.00
2022-08-05T17:06:53.516Z,30.00
2022-08-05T17:09:23.130Z,30.00
2022-08-05T17:11:56.017Z,30.00
2022-08-05T17:14:37.468Z,30.00
2022-08-05T17:17:14.358Z,29.90
2022-08-05T17:19:45.317Z,29.90
2022-08-05T17:22:24.409Z,29.90
2022-08-05T17:24:58.175Z,29.90
2022-08-05T17:27:33.882Z,29.90
2022-08-05T17:30:04.011Z,29.90
2022-08-05T17:32:34.780Z,29.80
2022-08-05T17:35:03.970Z,29.80
2022-08-05T17:37:41.675Z,29.80
2022-08-05T17:40:17.205Z,29.70
2022-08-05T17:42:50.996Z,29.70
2022-08-05T17:45:22.118Z,29.70
2022-08-05T17:47:55.803Z,29.60
2022-08-05T17:50:28.606Z,29.60
2022-08-05T17:53:00.356Z,29.60
2022-08-05T17:55:37.524Z,29.50
2022-08-05T17:58:09.580Z,29.50
2022-08-05T18:00:44.455Z,29.50
2022-08-05T18:06:11.197Z,29.40
2022-08-05T18:08:44.719Z,29.40
2022-08-05T18:11:24.626Z,29.30
2022-08-05T18:14:03.314Z,29.30
2022-08-05T18:16:32.393Z,29.20
2022-08-05T18:19:02.003Z,29.10
2022-08-05T18:22:09.034Z,29.10
2022-08-05T18:24:18.624Z,29.10
2022-08-05T18:26:49.204Z,28.90
2022-08-05T18:29:17.324Z,28.90
2022-08-05T18:32:01.099Z,28.90
2022-08-05T18:34:40.856Z,28.90
2022-08-05T18:37:12.248Z,28.90
2022-08-05T18:40:29.744Z,28.80
2022-08-05T18:42:29.489Z,28.80
2022-08-05T18:44:57.717Z,28.80
2022-08-05T18:47:28.539Z,28.20
2022-08-05T18:50:18.141Z,28.70
2022-08-05T18:52:51.059Z,28.60
2022-08-05T18:55:21.482Z,28.60
2022-08-05T18:57:53.232Z,28.60
2022-08-05T19:00:28.640Z,28.60
2022-08-05T19:03:04.093Z,28.60
2022-08-05T19:06:12.306Z,28.60
2022-08-05T19:08:30.431Z,28.50
2022-08-05T19:11:02.814Z,28.50
2022-08-05T19:13:36.020Z,28.40
2022-08-05T19:16:25.139Z,28.40
2022-08-05T19:18:56.801Z,28.40
2022-08-05T19:21:29.496Z,28.40
2022-08-05T19:24:05.655Z,28.40
2022-08-05T19:26:54.496Z,28.40
2022-08-05T19:29:36.181Z,28.40
2022-08-05T19:32:08.699Z,28.30
2022-08-05T19:34:40.113Z,28.30
2022-08-05T19:37:10.527Z,28.20
2022-08-05T19:39:45.128Z,28.20
2022-08-05T19:42:19.094Z,28.10
2022-08-05T19:45:05.725Z,28.10
2022-08-05T19:47:34.534Z,28.00
2022-08-05T19:50:07.518Z,28.00
2022-08-05T19:52:37.531Z,28.00
2022-08-05T19:56:13.926Z,27.90
2022-08-05T19:58:19.311Z,27.80
2022-08-05T20:00:44.155Z,27.80
2022-08-05T20:03:12.306Z,27.70
2022-08-05T20:05:50.311Z,27.70
2022-08-05T20:08:24.524Z,27.60
2022-08-05T20:10:53.256Z,27.60
2022-08-05T20:13:54.484Z,27.60
2022-08-05T20:16:11.083Z,27.50
2022-08-05T20:18:40.259Z,27.50
2022-08-05T20:21:09.439Z,27.50
2022-08-05T20:23:51.616Z,27.50
2022-08-05T20:26:23.373Z,27.40
2022-08-05T20:28:55.560Z,27.30
2022-08-05T20:31:28.584Z,27.20
2022-08-05T20:34:10.128Z,27.20
2022-08-05T20:36:39.159Z,27.20
2022-08-05T20:39:16.148Z,27.20
2022-08-05T20:41:46.703Z,27.10
2022-08-05T20:44:29.660Z,27.10
2022-08-05T20:46:59.619Z,27.10
2022-08-05T20:49:28.521Z,27.10
2022-08-05T20:51:57.919Z,27.00
2022-08-05T20:54:43.479Z,27.00
2022-08-05T20:57:42.661Z,27.00
2022-08-05T21:00:20.914Z,27.00
2022-08-05T21:03:01.563Z,27.00
2022-08-05T21:05:48.378Z,26.90
2022-08-05T21:08:18.220Z,27.00
2022-08-05T21:10:49.195Z,26.90
2022-08-05T21:13:46.921Z,26.90
2022-08-05T21:16:06.466Z,26.90
2022-08-05T21:18:34.697Z,26.90
2022-08-05T21:21:04.431Z,26.90
2022-08-05T21:23:37.049Z,26.90
2022-08-05T21:26:14.437Z,26.90
2022-08-05T21:28:48.011Z,26.80
2022-08-05T21:31:19.330Z,26.80
2022-08-05T21:33:49.593Z,26.80
2022-08-05T21:36:27.722Z,26.80
2022-08-05T21:38:58.517Z,26.70
2022-08-05T21:41:33.804Z,26.80
2022-08-05T21:44:04.405Z,26.70
2022-08-05T21:46:34.304Z,26.70
2022-08-05T21:49:07.261Z,26.70
2022-08-05T21:52:15.799Z,26.70
2022-08-05T21:54:27.823Z,26.60
2022-08-05T21:57:15.388Z,26.60
2022-08-05T22:00:03.304Z,26.60
2022-08-05T22:02:33.890Z,26.60
2022-08-05T22:05:02.120Z,26.50
2022-08-05T22:07:39.921Z,26.50
2022-08-05T22:10:27.182Z,26.50
2022-08-05T22:12:58.723Z,26.50
2022-08-05T22:16:00.285Z,26.50
2022-08-05T22:18:15.994Z,26.50
2022-08-05T22:20:47.869Z,26.50
2022-08-05T22:24:01.105Z,26.50
2022-08-05T22:26:49.645Z,26.50
2022-08-05T22:29:26.133Z,26.40
2022-08-05T22:32:02.623Z,26.40
2022-08-05T22:34:31.591Z,26.40
2022-08-05T22:37:00.675Z,26.30
2022-08-05T22:39:33.919Z,26.30
2022-08-05T22:42:09.429Z,26.30
2022-08-05T22:44:55.488Z,26.30
2022-08-05T22:47:29.423Z,26.30
2022-08-05T22:50:19.258Z,26.30
2022-08-05T22:52:48.061Z,26.20
2022-08-05T22:55:18.649Z,26.20
2022-08-05T22:57:49.272Z,26.20
2022-08-05T23:00:20.913Z,26.10
2022-08-05T23:02:50.506Z,26.10
2022-08-05T23:05:19.227Z,26.10
2022-08-05T23:07:50.752Z,26.10
2022-08-05T23:10:19.620Z,26.10
2022-08-05T23:12:51.653Z,26.10
2022-08-05T23:15:27.105Z,26.10
2022-08-05T23:18:02.397Z,26.00
2022-08-05T23:20:32.575Z,26.00
2022-08-05T23:23:03.545Z,26.00
2022-08-05T23:25:52.196Z,26.00
2022-08-05T23:28:22.882Z,25.90
2022-08-05T23:30:54.813Z,25.90
2022-08-05T23:33:26.474Z,25.90
2022-08-05T23:36:13.767Z,25.90
2022-08-05T23:38:42.853Z,25.90
2022-08-05T23:41:11.964Z,25.90
2022-08-05T23:44:05.581Z,25.90
2022-08-05T23:46:31.212Z,25.90
2022-08-05T23:49:01.928Z,25.90
2022-08-05T23:52:01.856Z,25.90
2022-08-05T23:54:36.331Z,25.80
2022-08-05T23:57:07.911Z,25.80
